KAVX/AVX METAR and TAF weather

Enter ICAO airport designator
Station Type Date Time Source
KAVX METAR 2021/07/20 13:51 UTC NOAA

KAVX 201351Z AUTO 31003KT 10SM CLR 23/00 A3006 RMK AO2 SLP148 T02280000 $


Station Type Date Time Source
KAVX Decoded METAR 2021/07/20 13:51 UTC NOAA

AVALON CATALINA AIRPORT, CA, United States (KAVX) 33-24N 118-25W 482M
Jul 20, 2021 - 09:51 AM EDT / 2021.07.20 1351 UTC
Wind: from the NW (310 degrees) at 3 MPH (3 KT):0
Visibility: 10 mile(s):0
Sky conditions: clear
Temperature: 73.0 F (22.8 C)
Dew Point: 32.0 F (0.0 C)
Relative Humidity: 22%
Pressure (altimeter): 30.06 in. Hg (1017 hPa)
ob: KAVX 201351Z AUTO 31003KT 10SM CLR 23/00 A3006 RMK AO2 SLP148 T02280000
cycle: 14

Station Type Date Time Source
KAVX TAF UTC NOAA

Error!

Example: see airport list